createdAt,value
2019-03-18T00:00:38.201Z,96.10
2019-03-18T00:03:11.021Z,96.20
2019-03-18T00:05:43.231Z,96.00
2019-03-18T00:08:15.623Z,95.80
2019-03-18T00:10:47.867Z,95.40
2019-03-18T00:13:20.505Z,95.70
2019-03-18T00:15:53.034Z,95.30
2019-03-18T00:18:25.765Z,95.20
2019-03-18T00:20:58.296Z,95.20
2019-03-18T00:23:30.803Z,95.00
2019-03-18T00:26:03.324Z,94.80
2019-03-18T00:28:36.035Z,95.10
2019-03-18T00:31:08.502Z,94.70
2019-03-18T00:33:41.059Z,94.30
2019-03-18T00:36:13.496Z,94.20
2019-03-18T00:38:46.042Z,94.00
2019-03-18T00:41:18.657Z,93.70
2019-03-18T00:43:51.686Z,93.50
2019-03-18T00:46:24.002Z,93.60
2019-03-18T00:48:56.570Z,93.40
2019-03-18T00:51:29.225Z,93.20
2019-03-18T00:54:01.727Z,93.30
2019-03-18T00:56:34.451Z,93.10
2019-03-18T00:59:07.097Z,92.80
2019-03-18T01:01:39.538Z,93.00
2019-03-18T01:04:11.982Z,92.70
2019-03-18T01:06:44.690Z,92.60
2019-03-18T01:09:17.344Z,92.50
2019-03-18T01:11:49.935Z,92.50
2019-03-18T01:14:22.706Z,92.40
2019-03-18T01:16:55.200Z,92.00
2019-03-18T01:25:46.246Z,92.10
2019-03-18T01:28:18.601Z,91.70
2019-03-18T01:30:51.544Z,91.50
2019-03-18T01:33:24.189Z,91.30
2019-03-18T01:36:16.968Z,91.30
2019-03-18T01:38:50.064Z,91.00
2019-03-18T01:41:22.996Z,90.90
2019-03-18T01:43:55.501Z,90.50
2019-03-18T01:46:28.624Z,90.50
2019-03-18T01:49:01.481Z,90.20
2019-03-18T01:51:34.475Z,90.40
2019-03-18T01:54:07.271Z,90.80
2019-03-18T01:56:40.014Z,90.00
2019-03-18T01:59:13.373Z,90.40
2019-03-18T02:01:46.085Z,90.00
2019-03-18T02:04:18.793Z,89.80
2019-03-18T02:06:51.732Z,89.50
2019-03-18T02:09:24.541Z,89.30
2019-03-18T02:11:57.136Z,89.20
2019-03-18T02:14:30.218Z,88.30
2019-03-18T02:17:03.181Z,87.80
2019-03-18T02:19:36.023Z,86.70
2019-03-18T02:22:09.397Z,85.80
2019-03-18T02:25:02.582Z,86.50
2019-03-18T02:27:36.484Z,85.80
2019-03-18T02:30:11.456Z,84.70
2019-03-18T02:32:44.336Z,84.60
2019-03-18T02:35:17.058Z,84.20
2019-03-18T02:38:01.859Z,82.80
2019-03-18T02:40:34.715Z,82.70
2019-03-18T02:43:07.217Z,82.80
2019-03-18T02:45:41.510Z,81.80
2019-03-18T02:48:14.288Z,81.00
2019-03-18T02:50:46.829Z,80.90
2019-03-18T02:53:19.804Z,80.80
2019-03-18T02:55:52.523Z,80.70
2019-03-18T02:58:25.578Z,80.10
2019-03-18T03:00:58.351Z,79.90
2019-03-18T03:03:30.974Z,79.50
2019-03-18T03:06:03.536Z,78.50
2019-03-18T03:08:36.184Z,78.30
2019-03-18T03:11:08.826Z,77.30
2019-03-18T03:13:41.129Z,77.30
2019-03-18T03:16:25.659Z,77.40
2019-03-18T03:18:47.455Z,76.80
2019-03-18T03:21:20.256Z,77.40
2019-03-18T03:23:52.653Z,75.70
2019-03-18T03:26:25.171Z,75.80
2019-03-18T03:28:57.609Z,75.50
2019-03-18T03:31:30.223Z,74.70
2019-03-18T03:34:03.149Z,74.60
2019-03-18T03:36:36.612Z,74.10
2019-03-18T03:39:09.674Z,73.90
2019-03-18T03:41:42.307Z,72.70
2019-03-18T03:44:14.969Z,72.50
2019-03-18T03:46:47.452Z,71.90
2019-03-18T03:49:19.934Z,72.00
2019-03-18T03:51:52.205Z,71.80
2019-03-18T03:54:25.192Z,71.40
2019-03-18T03:56:57.612Z,71.90
2019-03-18T03:59:30.228Z,71.20
2019-03-18T04:02:03.053Z,70.60
2019-03-18T04:04:35.956Z,70.50
2019-03-18T04:07:08.480Z,68.90
2019-03-18T04:09:41.492Z,69.60
2019-03-18T04:12:15.275Z,68.40
2019-03-18T04:14:47.984Z,68.10
2019-03-18T04:17:20.315Z,68.00
2019-03-18T04:19:52.888Z,69.20
2019-03-18T04:22:25.301Z,69.80
2019-03-18T04:24:58.062Z,66.40
2019-03-18T04:27:30.371Z,65.30
2019-03-18T04:30:03.096Z,65.90
2019-03-18T04:32:35.478Z,65.40
2019-03-18T04:35:08.960Z,65.60
2019-03-18T04:37:41.198Z,65.50
2019-03-18T04:40:14.149Z,64.90
2019-03-18T04:42:46.550Z,64.60
2019-03-18T04:45:18.908Z,64.10
2019-03-18T04:47:51.281Z,64.30
2019-03-18T04:50:23.773Z,63.80
2019-03-18T04:52:55.939Z,66.30
2019-03-18T04:55:28.457Z,63.10
2019-03-18T04:58:00.878Z,63.00
2019-03-18T05:00:33.577Z,62.60
2019-03-18T05:03:06.250Z,62.70
2019-03-18T05:05:38.900Z,60.90
2019-03-18T05:08:11.198Z,61.70
2019-03-18T05:10:43.816Z,63.40
2019-03-18T05:13:16.033Z,60.20
2019-03-18T05:15:48.425Z,60.30
2019-03-18T05:18:22.619Z,62.20
2019-03-18T05:20:54.959Z,63.80
2019-03-18T05:23:27.386Z,59.00
2019-03-18T05:26:00.006Z,57.60
2019-03-18T05:28:32.460Z,57.60
2019-03-18T05:31:05.062Z,58.20
2019-03-18T05:33:56.618Z,59.30
2019-03-18T05:36:29.277Z,57.60
2019-03-18T05:39:01.607Z,59.90
2019-03-18T05:41:34.463Z,58.70
2019-03-18T05:44:08.099Z,57.70
2019-03-18T05:46:40.987Z,57.50
2019-03-18T05:49:13.718Z,58.90
2019-03-18T05:51:46.254Z,57.20
2019-03-18T05:54:18.770Z,56.60
2019-03-18T05:56:51.796Z,55.80
2019-03-18T05:59:24.160Z,55.40
2019-03-18T06:01:56.595Z,54.20
2019-03-18T06:04:29.333Z,55.80
2019-03-18T06:07:01.831Z,56.20
2019-03-18T06:09:34.862Z,57.20
2019-03-18T06:12:07.796Z,56.50
2019-03-18T06:14:40.241Z,58.90
2019-03-18T06:17:12.683Z,57.40
2019-03-18T06:19:45.187Z,54.90
2019-03-18T06:22:17.518Z,53.50
2019-03-18T06:24:51.198Z,55.50
2019-03-18T06:27:23.787Z,51.30
2019-03-18T06:29:56.197Z,51.80
2019-03-18T06:32:28.523Z,52.00
2019-03-18T06:35:01.300Z,54.00
2019-03-18T06:37:35.192Z,55.00
2019-03-18T06:40:10.604Z,53.20
2019-03-18T06:42:43.110Z,54.00
2019-03-18T06:45:15.686Z,55.30
2019-03-18T06:47:47.841Z,55.70
2019-03-18T06:50:20.526Z,55.70
2019-03-18T06:52:52.723Z,56.20
2019-03-18T06:55:25.380Z,55.50
2019-03-18T06:57:57.740Z,56.30
2019-03-18T07:00:30.205Z,56.80
2019-03-18T07:03:03.118Z,52.50
2019-03-18T07:05:35.814Z,51.90
2019-03-18T07:08:08.340Z,51.10
2019-03-18T07:10:41.647Z,52.00
2019-03-18T07:13:14.032Z,51.30
2019-03-18T07:15:46.305Z,51.90
2019-03-18T07:18:19.191Z,54.30
2019-03-18T07:20:51.758Z,55.00
2019-03-18T07:23:24.431Z,52.20
2019-03-18T07:25:57.031Z,52.20
2019-03-18T07:28:30.431Z,50.10
2019-03-18T07:31:02.770Z,49.30
2019-03-18T07:33:35.141Z,49.80
2019-03-18T07:36:08.032Z,50.20
2019-03-18T07:38:40.420Z,50.80
2019-03-18T07:41:12.946Z,52.00
2019-03-18T07:43:45.142Z,50.70
2019-03-18T07:46:17.544Z,50.20
2019-03-18T07:48:49.703Z,50.40
2019-03-18T07:51:22.222Z,51.30
2019-03-18T07:53:54.650Z,50.40
2019-03-18T07:56:27.085Z,50.00
2019-03-18T07:59:00.742Z,50.80
2019-03-18T08:01:33.258Z,48.50
2019-03-18T08:04:05.983Z,49.00
2019-03-18T08:06:38.384Z,48.40
2019-03-18T08:09:11.280Z,48.00
2019-03-18T08:11:43.819Z,48.80
2019-03-18T08:14:16.156Z,50.50
2019-03-18T08:16:48.507Z,48.10
2019-03-18T08:19:20.727Z,49.50
2019-03-18T08:21:52.950Z,47.30
2019-03-18T08:24:25.913Z,47.20
2019-03-18T08:26:59.533Z,46.80
2019-03-18T08:29:32.416Z,47.90
2019-03-18T08:32:06.573Z,45.60
2019-03-18T08:34:40.091Z,43.80
2019-03-18T08:37:12.660Z,43.80
2019-03-18T08:39:45.267Z,43.50
2019-03-18T08:42:17.982Z,43.00
2019-03-18T08:44:50.522Z,42.00
2019-03-18T08:47:23.299Z,42.90
2019-03-18T08:49:55.491Z,43.40
2019-03-18T08:52:28.160Z,44.90
2019-03-18T08:55:01.465Z,42.90
2019-03-18T08:57:33.980Z,45.20
2019-03-18T09:00:09.109Z,45.60
2019-03-18T09:02:41.852Z,45.00
2019-03-18T09:05:14.994Z,45.00
2019-03-18T09:07:47.474Z,44.00
2019-03-18T09:10:20.659Z,45.40
2019-03-18T09:12:53.054Z,44.60
2019-03-18T09:15:25.528Z,42.10
2019-03-18T09:17:58.166Z,42.20
2019-03-18T09:20:30.860Z,43.00
2019-03-18T09:23:03.483Z,44.80
2019-03-18T09:25:35.844Z,43.90
2019-03-18T09:28:08.194Z,43.50
2019-03-18T09:30:41.080Z,43.10
2019-03-18T09:33:13.390Z,43.40
2019-03-18T09:35:45.912Z,43.10
2019-03-18T09:38:18.675Z,43.40
2019-03-18T09:40:52.595Z,42.70
2019-03-18T09:43:25.384Z,43.40
2019-03-18T09:45:58.334Z,43.90
2019-03-18T09:48:31.028Z,44.50
2019-03-18T09:51:03.858Z,44.60
2019-03-18T09:53:37.611Z,44.80
2019-03-18T09:56:10.221Z,44.70
2019-03-18T09:58:42.859Z,46.00
2019-03-18T10:01:15.402Z,45.50
2019-03-18T10:03:47.856Z,46.30
2019-03-18T10:06:20.402Z,46.60
2019-03-18T10:08:52.929Z,47.00
2019-03-18T10:11:25.486Z,47.70
2019-03-18T10:13:58.069Z,48.40
2019-03-18T10:16:30.495Z,48.20
2019-03-18T10:19:02.941Z,49.40
2019-03-18T10:21:35.268Z,49.30
2019-03-18T10:24:19.985Z,49.40
2019-03-18T10:26:52.640Z,49.70
2019-03-18T10:29:25.317Z,49.90
2019-03-18T10:31:57.753Z,50.60
2019-03-18T10:34:30.649Z,50.80
2019-03-18T10:37:03.193Z,51.30
2019-03-18T10:39:35.707Z,50.60
2019-03-18T10:42:08.020Z,50.70
2019-03-18T10:44:40.448Z,51.10
2019-03-18T10:47:12.826Z,52.00
2019-03-18T10:49:46.616Z,52.00
2019-03-18T10:52:19.208Z,52.30
2019-03-18T10:54:51.770Z,53.00
2019-03-18T10:57:25.256Z,55.90
2019-03-18T10:59:58.036Z,53.80
2019-03-18T11:02:30.671Z,53.90
2019-03-18T11:05:03.164Z,54.00
2019-03-18T11:07:35.733Z,54.80
2019-03-18T11:10:12.568Z,55.30
2019-03-18T11:12:44.683Z,55.50
2019-03-18T11:15:18.911Z,56.90
2019-03-18T11:17:51.480Z,57.50
2019-03-18T11:20:23.695Z,58.20
2019-03-18T11:22:56.184Z,57.90
2019-03-18T11:25:28.755Z,58.70
2019-03-18T11:28:01.406Z,58.50
2019-03-18T11:30:36.647Z,59.00
2019-03-18T11:33:09.627Z,58.60
2019-03-18T11:35:42.255Z,60.00
2019-03-18T11:38:15.060Z,59.90
2019-03-18T11:40:47.635Z,62.10
2019-03-18T11:43:20.586Z,61.60
2019-03-18T11:45:54.107Z,62.10
2019-03-18T11:48:26.759Z,62.70
2019-03-18T11:50:59.068Z,63.40
2019-03-18T11:53:31.592Z,63.70
2019-03-18T11:56:03.818Z,63.70
2019-03-18T11:58:36.322Z,64.80
2019-03-18T12:01:08.624Z,65.40
2019-03-18T12:03:41.305Z,65.10
2019-03-18T12:06:32.662Z,65.70
2019-03-18T12:09:05.495Z,65.90
2019-03-18T12:11:37.833Z,65.80
2019-03-18T12:14:10.047Z,66.70
2019-03-18T12:16:42.413Z,66.80
2019-03-18T12:19:15.117Z,67.30
2019-03-18T12:21:47.685Z,67.30
2019-03-18T12:24:20.426Z,66.90
2019-03-18T12:26:52.934Z,68.50
2019-03-18T12:29:25.555Z,67.60
2019-03-18T12:31:58.312Z,69.50
2019-03-18T12:34:31.649Z,68.40
2019-03-18T12:37:16.719Z,68.50
2019-03-18T12:39:49.369Z,69.10
2019-03-18T12:42:21.768Z,69.20
2019-03-18T12:44:54.380Z,68.90
2019-03-18T12:47:26.615Z,69.60
2019-03-18T12:49:59.241Z,69.60
2019-03-18T12:52:31.930Z,69.90
2019-03-18T12:55:04.714Z,70.40
2019-03-18T12:57:39.831Z,70.70
2019-03-18T13:00:15.762Z,71.00
2019-03-18T13:02:47.948Z,70.80
2019-03-18T13:05:20.781Z,71.30
2019-03-18T13:07:53.026Z,71.10
2019-03-18T13:10:25.265Z,71.40
2019-03-18T13:12:57.746Z,72.30
2019-03-18T13:15:31.131Z,73.20
2019-03-18T13:18:03.665Z,73.20
2019-03-18T13:20:36.431Z,73.10
2019-03-18T13:23:08.962Z,72.60
2019-03-18T13:25:41.271Z,72.70
2019-03-18T13:28:13.679Z,72.20
2019-03-18T13:30:47.009Z,72.30
2019-03-18T13:33:19.788Z,72.10
2019-03-18T13:35:53.540Z,72.00
2019-03-18T13:38:26.323Z,71.50
2019-03-18T13:40:59.200Z,71.70
2019-03-18T13:43:31.369Z,71.20
2019-03-18T13:46:04.154Z,71.20
2019-03-18T13:48:36.465Z,72.00
2019-03-18T13:51:20.417Z,71.20
2019-03-18T13:53:43.922Z,71.00
2019-03-18T13:56:17.471Z,71.40
2019-03-18T13:58:49.972Z,71.70
2019-03-18T14:01:22.991Z,71.40
2019-03-18T14:03:55.469Z,71.80
2019-03-18T14:06:28.548Z,71.50
2019-03-18T14:09:01.169Z,72.00
2019-03-18T14:11:34.963Z,72.00
2019-03-18T14:14:08.640Z,71.70
2019-03-18T14:16:41.837Z,71.60
2019-03-18T14:19:14.530Z,71.90
2019-03-18T14:21:47.051Z,71.80
2019-03-18T14:24:19.475Z,71.90
2019-03-18T14:26:51.956Z,72.40
2019-03-18T14:29:24.468Z,72.70
2019-03-18T14:31:57.275Z,72.70
2019-03-18T14:34:29.944Z,72.10
2019-03-18T14:37:02.469Z,71.90
2019-03-18T14:39:34.841Z,72.60
2019-03-18T14:42:07.905Z,72.00
2019-03-18T14:44:40.351Z,72.00
2019-03-18T14:47:13.062Z,71.80
2019-03-18T14:49:46.390Z,72.10
2019-03-18T14:52:19.415Z,72.30
2019-03-18T14:54:52.094Z,72.40
2019-03-18T14:57:24.659Z,72.50
2019-03-18T14:59:57.029Z,73.30
2019-03-18T15:02:29.624Z,74.00
2019-03-18T15:05:02.545Z,74.60
2019-03-18T15:07:35.158Z,75.00
2019-03-18T15:10:09.672Z,75.80
2019-03-18T15:12:42.171Z,76.00
2019-03-18T15:15:17.576Z,76.60
2019-03-18T15:17:50.087Z,75.00
2019-03-18T15:20:24.850Z,74.60
2019-03-18T15:22:57.286Z,73.90
2019-03-18T15:25:32.965Z,74.20
2019-03-18T15:28:06.006Z,74.80
2019-03-18T15:30:38.131Z,75.10
2019-03-18T15:33:10.555Z,75.50
2019-03-18T15:35:42.863Z,75.80
2019-03-18T15:38:15.473Z,76.10
2019-03-18T15:40:47.594Z,76.40
2019-03-18T15:43:20.257Z,76.40
2019-03-18T15:45:52.726Z,76.50
2019-03-18T15:48:25.398Z,76.40
2019-03-18T15:50:57.611Z,76.40
2019-03-18T15:53:29.866Z,76.40
2019-03-18T15:56:02.471Z,76.60
2019-03-18T15:58:35.131Z,76.50
2019-03-18T16:01:07.429Z,77.00
2019-03-18T16:03:40.675Z,77.20
2019-03-18T16:06:12.848Z,77.20
2019-03-18T16:08:45.286Z,77.30
2019-03-18T16:11:17.487Z,77.40
2019-03-18T16:13:50.149Z,77.20
2019-03-18T16:16:22.490Z,77.30
2019-03-18T16:18:55.126Z,77.80
2019-03-18T16:21:28.454Z,77.70
2019-03-18T16:24:00.838Z,77.90
2019-03-18T16:26:33.448Z,78.30
2019-03-18T16:29:06.321Z,77.90
2019-03-18T16:31:38.994Z,77.80
2019-03-18T16:34:11.353Z,78.40
2019-03-18T16:36:43.994Z,77.60
2019-03-18T16:39:16.600Z,77.90
2019-03-18T16:41:49.184Z,78.60
2019-03-18T16:44:21.561Z,78.60
2019-03-18T16:46:53.814Z,79.00
2019-03-18T16:49:26.643Z,79.00
2019-03-18T16:51:59.091Z,79.20
2019-03-18T16:54:31.806Z,79.30
2019-03-18T16:57:04.092Z,79.00
2019-03-18T16:59:36.528Z,78.90
2019-03-18T17:02:09.362Z,78.50
2019-03-18T17:04:42.667Z,78.90
2019-03-18T17:07:15.160Z,79.00
2019-03-18T17:09:47.910Z,78.90
2019-03-18T17:12:20.176Z,78.80
2019-03-18T17:14:52.600Z,78.60
2019-03-18T17:17:25.263Z,79.20
2019-03-18T17:19:57.741Z,79.00
2019-03-18T17:22:30.396Z,79.60
2019-03-18T17:25:02.804Z,79.30
2019-03-18T17:27:35.780Z,79.80
2019-03-18T17:30:10.872Z,79.40
2019-03-18T17:32:45.220Z,79.50
2019-03-18T17:35:18.072Z,79.00
2019-03-18T17:37:50.565Z,79.90
2019-03-18T17:40:23.695Z,79.10
2019-03-18T17:42:56.100Z,79.60
2019-03-18T17:45:28.762Z,79.30
2019-03-18T17:48:01.179Z,79.30
2019-03-18T17:50:34.151Z,79.70
2019-03-18T17:53:06.563Z,79.90
2019-03-18T17:55:39.517Z,80.00
2019-03-18T17:58:12.027Z,80.70
2019-03-18T18:00:45.656Z,80.20
2019-03-18T18:03:18.057Z,80.50
2019-03-18T18:05:51.557Z,80.50
2019-03-18T18:08:24.504Z,80.00
2019-03-18T18:10:57.493Z,81.30
2019-03-18T18:13:29.855Z,81.70
2019-03-18T18:16:02.477Z,81.10
2019-03-18T18:18:34.896Z,81.20
2019-03-18T18:21:07.906Z,81.30
2019-03-18T18:23:40.273Z,80.30
2019-03-18T18:26:12.722Z,81.10
2019-03-18T18:28:45.013Z,81.20
2019-03-18T18:31:17.793Z,80.80
2019-03-18T18:33:50.293Z,80.90
2019-03-18T18:36:25.197Z,81.20
2019-03-18T18:38:56.539Z,81.40
2019-03-18T18:41:29.191Z,82.20
2019-03-18T18:44:01.809Z,82.30
2019-03-18T18:46:34.770Z,82.40
2019-03-18T18:49:07.396Z,82.30
2019-03-18T18:51:39.988Z,83.20
2019-03-18T18:54:12.866Z,83.60
2019-03-18T18:56:45.147Z,83.50
2019-03-18T18:59:17.821Z,83.20
2019-03-18T19:01:49.949Z,83.60
2019-03-18T19:04:22.720Z,83.90
2019-03-18T19:06:55.065Z,83.50
2019-03-18T19:09:27.795Z,83.90
2019-03-18T19:12:00.230Z,84.00
2019-03-18T19:14:32.764Z,85.30
2019-03-18T19:17:05.079Z,85.70
2019-03-18T19:19:38.069Z,87.40
2019-03-18T19:22:10.505Z,86.80
2019-03-18T19:24:42.894Z,88.20
2019-03-18T19:27:15.506Z,86.60
2019-03-18T19:29:48.188Z,86.10
2019-03-18T19:32:21.095Z,85.60
2019-03-18T19:34:54.683Z,86.40
2019-03-18T19:37:27.316Z,87.20
2019-03-18T19:40:00.590Z,86.40
2019-03-18T19:42:33.579Z,86.60
2019-03-18T19:45:07.734Z,87.90
2019-03-18T19:47:41.054Z,88.90
2019-03-18T19:50:15.824Z,88.20
2019-03-18T19:52:48.111Z,88.30
2019-03-18T19:55:20.639Z,88.40
2019-03-18T19:57:53.156Z,88.70
2019-03-18T20:00:27.800Z,88.20
2019-03-18T20:03:00.269Z,88.50
2019-03-18T20:05:32.907Z,90.00
2019-03-18T20:08:05.391Z,90.20
2019-03-18T20:10:37.816Z,90.10
2019-03-18T20:13:10.230Z,90.30
2019-03-18T20:15:42.964Z,90.90
2019-03-18T20:18:15.433Z,90.60
2019-03-18T20:20:48.078Z,90.60
2019-03-18T20:23:20.591Z,90.40
2019-03-18T20:25:53.406Z,90.70
2019-03-18T20:28:25.827Z,90.70
2019-03-18T20:30:58.307Z,90.40
2019-03-18T20:33:30.656Z,90.70
2019-03-18T20:36:03.398Z,91.20
2019-03-18T20:38:35.775Z,91.10
2019-03-18T20:41:08.717Z,91.60
2019-03-18T20:43:41.039Z,91.40
2019-03-18T20:46:13.595Z,91.80
2019-03-18T20:48:45.992Z,92.20
2019-03-18T20:51:18.778Z,92.10
2019-03-18T20:53:51.429Z,92.20
2019-03-18T20:56:24.224Z,91.60
2019-03-18T20:58:56.714Z,91.50
2019-03-18T21:01:29.591Z,92.10
2019-03-18T21:04:02.369Z,92.80
2019-03-18T21:06:34.879Z,92.90
2019-03-18T21:09:09.019Z,93.10
2019-03-18T21:11:41.527Z,92.60
2019-03-18T21:14:14.237Z,92.70
2019-03-18T21:16:46.626Z,93.10
2019-03-18T21:19:19.000Z,92.80
2019-03-18T21:21:51.606Z,92.60
2019-03-18T21:24:24.327Z,92.70
2019-03-18T21:26:57.012Z,92.90
2019-03-18T21:29:29.390Z,93.00
2019-03-18T21:32:21.110Z,92.90
2019-03-18T21:34:53.688Z,92.70
2019-03-18T21:37:27.238Z,92.70
2019-03-18T21:39:59.704Z,92.40
2019-03-18T21:42:32.033Z,92.00
2019-03-18T21:45:04.726Z,91.70
2019-03-18T21:47:37.077Z,91.40
2019-03-18T21:50:10.990Z,91.40
2019-03-18T21:52:43.479Z,91.60
2019-03-18T21:55:17.012Z,91.60
2019-03-18T21:57:49.793Z,91.80
2019-03-18T22:00:23.965Z,91.80
2019-03-18T22:02:56.403Z,91.90
2019-03-18T22:05:28.859Z,91.90
2019-03-18T22:08:01.448Z,92.10
2019-03-18T22:10:33.777Z,92.60
2019-03-18T22:13:06.561Z,92.20
2019-03-18T22:15:38.988Z,92.40
2019-03-18T22:18:12.225Z,92.50
2019-03-18T22:20:44.795Z,92.50
2019-03-18T22:23:17.505Z,92.30
2019-03-18T22:25:49.694Z,92.30
2019-03-18T22:28:22.180Z,92.70
2019-03-18T22:30:54.774Z,92.80
2019-03-18T22:33:27.280Z,92.80
2019-03-18T22:35:59.926Z,93.10
2019-03-18T22:38:32.599Z,93.20
2019-03-18T22:41:05.039Z,93.40
2019-03-18T22:43:37.369Z,93.50
2019-03-18T22:46:10.129Z,93.50
2019-03-18T22:48:42.551Z,93.60
2019-03-18T22:51:15.942Z,93.80
2019-03-18T22:53:48.496Z,94.00
2019-03-18T22:56:21.255Z,94.00
2019-03-18T22:58:55.007Z,94.20
2019-03-18T23:01:27.484Z,94.00
2019-03-18T23:04:00.177Z,94.10
2019-03-18T23:06:32.837Z,94.20
2019-03-18T23:09:05.948Z,94.10
2019-03-18T23:11:38.768Z,94.30
2019-03-18T23:14:11.186Z,94.40
2019-03-18T23:16:43.537Z,94.50
2019-03-18T23:19:15.984Z,94.70
2019-03-18T23:21:48.129Z,94.60
2019-03-18T23:24:20.824Z,94.80
2019-03-18T23:26:54.300Z,95.10
2019-03-18T23:29:27.649Z,95.10
2019-03-18T23:32:00.108Z,95.10
2019-03-18T23:34:32.974Z,95.40
2019-03-18T23:37:05.826Z,95.40
2019-03-18T23:39:38.755Z,95.40
2019-03-18T23:42:11.205Z,95.50
2019-03-18T23:44:44.056Z,95.70
2019-03-18T23:47:17.442Z,95.50
2019-03-18T23:49:50.074Z,95.20
2019-03-18T23:52:22.519Z,95.30
2019-03-18T23:54:55.114Z,95.10
2019-03-18T23:57:27.773Z,95.00
